createdAt,value
2019-01-28T00:00:54.254Z,2.13
2019-01-28T00:03:41.903Z,2.23
2019-01-28T00:06:29.812Z,4.70
2019-01-28T00:09:17.441Z,2.23
2019-01-28T00:12:05.727Z,2.37
2019-01-28T00:14:53.261Z,2.00
2019-01-28T00:17:40.793Z,2.50
2019-01-28T00:20:28.680Z,2.17
2019-01-28T00:23:16.210Z,2.43
2019-01-28T00:26:04.422Z,2.03
2019-01-28T00:28:52.139Z,2.43
2019-01-28T00:31:39.790Z,3.03
2019-01-28T00:34:27.586Z,2.30
2019-01-28T00:37:15.433Z,2.13
2019-01-28T00:40:02.983Z,2.53
2019-01-28T00:42:50.656Z,2.47
2019-01-28T00:45:38.152Z,2.40
2019-01-28T00:48:25.732Z,2.20
2019-01-28T00:51:13.110Z,2.47
2019-01-28T00:54:01.362Z,2.47
2019-01-28T00:56:48.813Z,2.17
2019-01-28T00:59:36.282Z,2.10
2019-01-28T01:02:24.042Z,1.97
2019-01-28T01:05:11.998Z,2.13
2019-01-28T01:07:59.391Z,2.03
2019-01-28T01:10:46.698Z,2.43
2019-01-28T01:13:34.430Z,2.10
2019-01-28T01:16:22.281Z,2.30
2019-01-28T01:19:09.395Z,2.23
2019-01-28T01:21:56.813Z,2.10
2019-01-28T01:24:44.149Z,1.77
2019-01-28T01:27:31.217Z,2.10
2019-01-28T01:30:19.288Z,2.00
2019-01-28T01:33:06.809Z,1.83
2019-01-28T01:35:54.507Z,2.10
2019-01-28T01:38:41.583Z,1.70
2019-01-28T01:41:28.817Z,1.70
2019-01-28T01:44:16.422Z,1.57
2019-01-28T01:47:03.644Z,2.70
2019-01-28T01:49:51.077Z,2.20
2019-01-28T01:52:38.795Z,1.60
2019-01-28T01:55:26.465Z,1.97
2019-01-28T01:58:13.894Z,1.90
2019-01-28T02:01:01.350Z,1.80
2019-01-28T02:03:48.496Z,1.87
2019-01-28T02:06:35.946Z,2.00
2019-01-28T02:09:23.096Z,1.90
2019-01-28T02:12:10.254Z,1.70
2019-01-28T02:14:58.024Z,2.23
2019-01-28T02:17:45.697Z,2.10
2019-01-28T02:20:33.161Z,1.80
2019-01-28T02:23:20.633Z,1.70
2019-01-28T02:26:08.352Z,1.80
2019-01-28T02:28:55.965Z,2.00
2019-01-28T02:31:43.155Z,1.70
2019-01-28T02:34:30.556Z,1.93
2019-01-28T02:37:17.725Z,1.80
2019-01-28T02:40:07.931Z,1.90
2019-01-28T02:42:55.221Z,1.70
2019-01-28T02:45:43.075Z,2.30
2019-01-28T02:48:30.789Z,1.70
2019-01-28T02:51:18.210Z,1.70
2019-01-28T02:54:06.208Z,1.80
2019-01-28T02:56:53.737Z,2.00
2019-01-28T02:59:40.857Z,1.70
2019-01-28T03:02:27.992Z,1.80
2019-01-28T03:05:16.051Z,1.57
2019-01-28T03:08:03.846Z,1.60
2019-01-28T03:10:51.487Z,1.93
2019-01-28T03:13:38.868Z,1.70
2019-01-28T03:16:26.226Z,2.13
2019-01-28T03:19:14.166Z,2.07
2019-01-28T03:22:01.467Z,1.60
2019-01-28T03:24:48.796Z,2.33
2019-01-28T03:27:36.902Z,2.10
2019-01-28T03:30:26.122Z,2.23
2019-01-28T03:33:13.781Z,2.70
2019-01-28T03:36:01.494Z,2.50
2019-01-28T03:38:49.300Z,2.10
2019-01-28T03:41:36.449Z,2.07
2019-01-28T03:44:23.936Z,2.20
2019-01-28T03:47:11.371Z,2.17
2019-01-28T03:49:59.618Z,2.10
2019-01-28T03:52:47.472Z,2.03
2019-01-28T03:55:35.489Z,2.60
2019-01-28T03:58:23.115Z,2.20
2019-01-28T04:01:10.812Z,3.03
2019-01-28T04:03:58.376Z,2.47
2019-01-28T04:06:46.054Z,2.50
2019-01-28T04:09:34.534Z,2.20
2019-01-28T04:12:22.566Z,8.03
2019-01-28T04:15:11.151Z,2.00
2019-01-28T04:17:58.893Z,2.30
2019-01-28T04:20:46.557Z,2.50
2019-01-28T04:23:33.998Z,2.20
2019-01-28T04:26:22.731Z,1.90
2019-01-28T04:29:09.934Z,1.90
2019-01-28T04:31:57.134Z,3.97
2019-01-28T04:34:44.493Z,2.20
2019-01-28T04:37:31.924Z,2.40
2019-01-28T04:40:19.545Z,2.67
2019-01-28T04:43:07.834Z,2.83
2019-01-28T04:45:55.418Z,4.17
2019-01-28T04:48:43.306Z,3.13
2019-01-28T04:51:30.911Z,2.37
2019-01-28T04:54:18.293Z,2.30
2019-01-28T04:57:06.124Z,2.67
2019-01-28T04:59:53.697Z,2.20
2019-01-28T05:02:41.468Z,4.13
2019-01-28T05:05:30.212Z,2.10
2019-01-28T05:08:18.092Z,2.70
2019-01-28T05:11:06.203Z,1.87
2019-01-28T05:13:53.488Z,2.23
2019-01-28T05:16:40.991Z,1.97
2019-01-28T05:19:30.670Z,2.30
2019-01-28T05:22:17.380Z,2.27
2019-01-28T05:25:05.869Z,2.30
2019-01-28T05:27:53.385Z,2.63
2019-01-28T05:30:40.499Z,2.13
2019-01-28T05:33:28.657Z,2.50
2019-01-28T05:36:17.136Z,3.00
2019-01-28T05:39:08.336Z,2.50
2019-01-28T05:45:22.212Z,4.93
2019-01-28T05:48:19.384Z,2.50
2019-01-28T05:51:08.649Z,2.00
2019-01-28T05:53:59.653Z,1.90
2019-01-28T05:57:02.818Z,2.40
2019-01-28T05:59:55.480Z,1.77
2019-01-28T06:02:53.767Z,1.70
2019-01-28T06:05:47.419Z,1.87
2019-01-28T06:08:37.394Z,1.83
2019-01-28T06:11:25.394Z,1.90
2019-01-28T06:14:13.765Z,3.10
2019-01-28T06:17:01.095Z,2.07
2019-01-28T06:19:48.891Z,1.87
2019-01-28T06:22:37.034Z,2.30
2019-01-28T06:25:24.753Z,1.87
2019-01-28T06:28:12.035Z,2.43
2019-01-28T06:30:59.912Z,2.53
2019-01-28T06:33:47.853Z,3.00
2019-01-28T06:36:36.085Z,3.00
2019-01-28T06:39:23.376Z,2.20
2019-01-28T06:42:11.878Z,2.27
2019-01-28T06:44:59.918Z,2.30
2019-01-28T06:47:47.658Z,2.90
2019-01-28T06:50:35.594Z,2.37
2019-01-28T06:53:23.277Z,5.50
2019-01-28T06:56:10.823Z,3.33
2019-01-28T06:58:58.421Z,2.03
2019-01-28T07:01:46.165Z,2.97
2019-01-28T07:04:34.154Z,2.50
2019-01-28T07:07:21.628Z,2.20
2019-01-28T07:10:09.881Z,2.87
2019-01-28T07:12:57.734Z,1.90
2019-01-28T07:15:45.448Z,2.00
2019-01-28T07:18:32.790Z,2.50
2019-01-28T07:21:20.423Z,1.80
2019-01-28T07:24:08.695Z,3.87
2019-01-28T07:26:56.582Z,2.23
2019-01-28T07:29:44.581Z,3.13
2019-01-28T07:32:31.993Z,2.53
2019-01-28T07:35:19.647Z,2.73
2019-01-28T07:38:07.573Z,2.43
2019-01-28T07:40:54.963Z,3.27
2019-01-28T07:43:42.710Z,3.57
2019-01-28T07:46:30.082Z,4.67
2019-01-28T07:49:17.270Z,3.00
2019-01-28T07:52:05.913Z,2.90
2019-01-28T07:54:53.612Z,5.10
2019-01-28T07:57:41.625Z,3.13
2019-01-28T08:00:30.057Z,2.20
2019-01-28T08:03:17.962Z,2.47
2019-01-28T08:06:06.127Z,2.30
2019-01-28T08:08:53.205Z,3.43
2019-01-28T08:11:40.679Z,1.63
2019-01-28T08:14:28.204Z,3.70
2019-01-28T08:17:16.061Z,2.07
2019-01-28T08:20:11.386Z,2.97
2019-01-28T08:22:54.466Z,4.70
2019-01-28T08:25:42.332Z,4.10
2019-01-28T08:28:36.669Z,3.10
2019-01-28T08:31:18.756Z,1.93
2019-01-28T08:34:06.660Z,2.27
2019-01-28T08:36:54.753Z,2.30
2019-01-28T08:39:42.999Z,2.00
2019-01-28T08:42:30.587Z,2.70
2019-01-28T08:45:18.162Z,2.13
2019-01-28T08:48:06.385Z,3.97
2019-01-28T08:50:53.797Z,2.07
2019-01-28T08:53:41.295Z,2.07
2019-01-28T08:56:28.828Z,2.27
2019-01-28T08:59:16.785Z,1.90
2019-01-28T09:02:05.165Z,2.50
2019-01-28T09:04:53.113Z,2.93
2019-01-28T09:07:40.960Z,1.90
2019-01-28T09:10:28.886Z,1.60
2019-01-28T09:13:16.473Z,2.00
2019-01-28T09:16:04.289Z,1.83
2019-01-28T09:18:52.034Z,1.50
2019-01-28T09:21:39.352Z,2.00
2019-01-28T09:24:27.453Z,2.00
2019-01-28T09:27:18.819Z,1.30
2019-01-28T09:30:08.497Z,3.00
2019-01-28T09:32:56.424Z,2.07
2019-01-28T09:35:43.908Z,1.80
2019-01-28T09:38:31.948Z,1.73
2019-01-28T09:41:19.391Z,1.80
2019-01-28T09:44:07.089Z,1.63
2019-01-28T09:46:54.840Z,1.90
2019-01-28T09:49:42.553Z,1.90
2019-01-28T09:52:30.150Z,1.73
2019-01-28T09:55:18.274Z,3.93
2019-01-28T09:58:06.178Z,2.17
2019-01-28T10:00:53.750Z,3.27
2019-01-28T10:03:41.528Z,3.37
2019-01-28T10:06:29.265Z,3.07
2019-01-28T10:09:16.637Z,2.43
2019-01-28T10:12:04.272Z,1.67
2019-01-28T10:14:51.720Z,1.90
2019-01-28T10:17:39.562Z,2.40
2019-01-28T10:20:29.545Z,1.60
2019-01-28T10:23:17.041Z,2.20
2019-01-28T10:26:05.758Z,3.23
2019-01-28T10:28:53.702Z,3.73
2019-01-28T10:31:41.413Z,2.57
2019-01-28T10:34:29.060Z,4.47
2019-01-28T10:37:16.838Z,1.60
2019-01-28T10:40:07.100Z,1.63
2019-01-28T10:42:54.734Z,2.63
2019-01-28T10:45:42.499Z,1.80
2019-01-28T10:48:30.237Z,2.37
2019-01-28T10:51:18.049Z,2.30
2019-01-28T10:54:06.037Z,2.37
2019-01-28T10:56:53.972Z,1.67
2019-01-28T10:59:41.393Z,3.50
2019-01-28T11:02:31.656Z,2.77
2019-01-28T11:05:19.138Z,2.13
2019-01-28T11:08:07.292Z,1.80
2019-01-28T11:10:55.929Z,3.70
2019-01-28T11:13:43.547Z,1.70
2019-01-28T11:16:31.586Z,4.47
2019-01-28T11:19:19.062Z,2.03
2019-01-28T11:22:06.225Z,2.90
2019-01-28T11:24:54.207Z,1.90
2019-01-28T11:27:41.726Z,1.70
2019-01-28T11:30:45.673Z,1.90
2019-01-28T11:33:33.167Z,2.33
2019-01-28T11:36:21.447Z,1.70
2019-01-28T11:39:10.530Z,4.60
2019-01-28T11:41:58.549Z,4.03
2019-01-28T11:44:46.289Z,1.83
2019-01-28T11:47:33.931Z,2.80
2019-01-28T11:50:21.714Z,4.00
2019-01-28T11:53:09.191Z,3.43
2019-01-28T11:55:56.384Z,2.37
2019-01-28T11:58:43.725Z,3.10
2019-01-28T12:01:31.875Z,2.47
2019-01-28T12:04:19.550Z,2.37
2019-01-28T12:07:07.444Z,2.33
2019-01-28T12:09:55.650Z,2.07
2019-01-28T12:12:43.910Z,4.27
2019-01-28T12:15:31.755Z,1.93
2019-01-28T12:18:19.981Z,1.70
2019-01-28T12:21:09.038Z,1.80
2019-01-28T12:23:56.639Z,1.93
2019-01-28T12:26:44.474Z,2.30
2019-01-28T12:29:32.127Z,1.87
2019-01-28T12:32:19.766Z,2.20
2019-01-28T12:35:08.517Z,2.07
2019-01-28T12:37:55.918Z,2.67
2019-01-28T12:40:43.701Z,2.17
2019-01-28T12:43:31.201Z,2.30
2019-01-28T12:46:18.549Z,3.00
2019-01-28T12:49:06.329Z,2.37
2019-01-28T12:51:53.642Z,2.00
2019-01-28T12:54:41.428Z,3.33
2019-01-28T12:57:28.829Z,1.87
2019-01-28T13:00:18.839Z,2.07
2019-01-28T13:03:07.538Z,1.90
2019-01-28T13:05:55.258Z,1.60
2019-01-28T13:08:43.072Z,1.50
2019-01-28T13:11:30.962Z,3.20
2019-01-28T13:14:18.645Z,2.10
2019-01-28T13:17:05.982Z,1.90
2019-01-28T13:19:53.742Z,2.17
2019-01-28T13:22:45.004Z,3.20
2019-01-28T13:25:31.013Z,2.20
2019-01-28T13:28:18.642Z,1.90
2019-01-28T13:31:06.228Z,2.60
2019-01-28T13:33:53.524Z,1.90
2019-01-28T13:36:41.277Z,2.33
2019-01-28T13:39:28.637Z,5.43
2019-01-28T13:42:15.998Z,2.10
2019-01-28T13:45:03.120Z,3.80
2019-01-28T13:47:51.342Z,2.60
2019-01-28T13:50:38.374Z,2.33
2019-01-28T13:53:26.180Z,3.10
2019-01-28T13:56:13.929Z,4.00
2019-01-28T13:59:01.645Z,6.40
2019-01-28T14:01:49.213Z,7.23
2019-01-28T14:04:36.533Z,3.33
2019-01-28T14:07:24.248Z,2.70
2019-01-28T14:10:12.654Z,1.83
2019-01-28T14:13:00.314Z,5.33
2019-01-28T14:15:47.974Z,3.60
2019-01-28T14:18:35.664Z,2.70
2019-01-28T14:21:23.832Z,3.03
2019-01-28T14:24:11.252Z,2.00
2019-01-28T14:26:58.313Z,5.27
2019-01-28T14:29:45.410Z,2.67
2019-01-28T14:32:33.112Z,2.60
2019-01-28T14:35:21.061Z,2.73
2019-01-28T14:38:11.161Z,2.23
2019-01-28T14:40:58.761Z,2.20
2019-01-28T14:43:46.158Z,2.50
2019-01-28T14:46:33.788Z,2.10
2019-01-28T14:49:20.979Z,2.20
2019-01-28T14:52:08.463Z,2.27
2019-01-28T14:54:56.409Z,4.60
2019-01-28T14:57:44.708Z,2.40
2019-01-28T15:00:34.833Z,2.87
2019-01-28T15:03:23.294Z,2.60
2019-01-28T15:06:11.322Z,3.27
2019-01-28T15:09:09.182Z,2.63
2019-01-28T15:11:58.371Z,3.80
2019-01-28T15:14:47.512Z,5.67
2019-01-28T15:17:37.619Z,7.73
2019-01-28T15:20:26.784Z,6.13
2019-01-28T15:23:15.947Z,3.90
2019-01-28T15:26:05.928Z,3.30
2019-01-28T15:28:54.285Z,3.13
2019-01-28T15:31:43.436Z,2.60
2019-01-28T15:34:31.634Z,3.67
2019-01-28T15:37:19.528Z,3.63
2019-01-28T15:40:08.701Z,4.37
2019-01-28T15:42:56.411Z,7.23
2019-01-28T15:45:44.642Z,4.00
2019-01-28T15:48:32.600Z,4.20
2019-01-28T15:51:20.837Z,3.40
2019-01-28T15:54:10.516Z,4.23
2019-01-28T15:56:58.656Z,3.97
2019-01-28T15:59:46.697Z,6.90
2019-01-28T16:02:35.160Z,7.13
2019-01-28T16:05:23.595Z,4.43
2019-01-28T16:08:11.848Z,6.10
2019-01-28T16:11:00.698Z,6.87
2019-01-28T16:13:48.735Z,4.23
2019-01-28T16:16:37.208Z,5.60
2019-01-28T16:19:25.453Z,6.63
2019-01-28T16:22:13.470Z,9.63
2019-01-28T16:25:01.207Z,3.17
2019-01-28T16:27:49.685Z,5.67
2019-01-28T16:30:38.001Z,14.07
2019-01-28T16:33:25.470Z,10.20
2019-01-28T16:36:13.305Z,21.20
2019-01-28T16:39:00.662Z,12.13
2019-01-28T16:41:47.809Z,10.80
2019-01-28T16:44:35.165Z,6.87
2019-01-28T16:47:22.541Z,10.30
2019-01-28T16:50:11.766Z,13.33
2019-01-28T16:52:59.214Z,4.57
2019-01-28T16:55:46.782Z,10.20
2019-01-28T16:58:36.310Z,11.57
2019-01-28T17:01:23.921Z,6.60
2019-01-28T17:04:11.368Z,6.43
2019-01-28T17:06:58.988Z,7.33
2019-01-28T17:09:46.496Z,6.50
2019-01-28T17:12:33.703Z,6.30
2019-01-28T17:15:21.347Z,5.50
2019-01-28T17:18:09.090Z,4.67
2019-01-28T17:20:57.612Z,6.70
2019-01-28T17:23:44.799Z,7.23
2019-01-28T17:26:32.229Z,10.13
2019-01-28T17:29:19.638Z,3.90
2019-01-28T17:32:07.148Z,4.30
2019-01-28T17:34:54.436Z,4.57
2019-01-28T17:37:41.780Z,3.53
2019-01-28T17:40:29.400Z,3.67
2019-01-28T17:43:17.996Z,4.73
2019-01-28T17:46:05.826Z,4.70
2019-01-28T17:48:53.768Z,4.73
2019-01-28T17:51:41.133Z,5.50
2019-01-28T17:54:28.643Z,4.90
2019-01-28T17:57:16.041Z,3.57
2019-01-28T18:00:05.777Z,3.87
2019-01-28T18:02:53.235Z,5.07
2019-01-28T18:05:40.776Z,9.30
2019-01-28T18:08:28.416Z,9.03
2019-01-28T18:11:16.106Z,6.53
2019-01-28T18:14:03.961Z,5.53
2019-01-28T18:16:51.858Z,7.73
2019-01-28T18:19:39.416Z,7.43
2019-01-28T18:22:33.941Z,6.13
2019-01-28T18:25:23.960Z,4.00
2019-01-28T18:28:11.635Z,4.50
2019-01-28T18:30:58.738Z,3.77
2019-01-28T18:33:46.076Z,4.87
2019-01-28T18:36:33.147Z,5.53
2019-01-28T18:39:20.593Z,6.90
2019-01-28T18:42:08.519Z,4.90
2019-01-28T18:44:56.293Z,5.00
2019-01-28T18:47:44.215Z,5.30
2019-01-28T18:50:31.917Z,5.97
2019-01-28T18:53:20.063Z,6.60
2019-01-28T18:56:08.186Z,4.93
2019-01-28T18:58:55.195Z,5.33
2019-01-28T19:01:42.687Z,6.20
2019-01-28T19:04:29.875Z,5.50
2019-01-28T19:07:26.198Z,6.27
2019-01-28T19:10:23.542Z,7.90
2019-01-28T19:13:20.629Z,5.83
2019-01-28T19:16:19.772Z,9.20
2019-01-28T19:19:14.313Z,6.83
2019-01-28T19:22:02.637Z,9.30
2019-01-28T19:25:16.393Z,11.27
2019-01-28T19:28:03.484Z,7.50
2019-01-28T19:30:51.358Z,11.17
2019-01-28T19:33:38.700Z,10.40
2019-01-28T19:36:26.121Z,9.73
2019-01-28T19:39:13.710Z,8.60
2019-01-28T19:42:04.829Z,9.03
2019-01-28T19:45:10.263Z,13.77
2019-01-28T19:48:35.803Z,8.07
2019-01-28T19:51:39.949Z,11.40
2019-01-28T19:55:21.620Z,11.87
2019-01-28T19:58:10.878Z,8.93
2019-01-28T20:01:21.330Z,8.03
2019-01-28T20:04:24.419Z,11.07
2019-01-28T20:07:21.273Z,11.07
2019-01-28T20:10:10.033Z,10.47
2019-01-28T20:13:21.017Z,11.20
2019-01-28T20:16:12.619Z,10.50
2019-01-28T20:19:01.997Z,11.87
2019-01-28T20:22:07.330Z,12.33
2019-01-28T20:24:59.657Z,13.70
2019-01-28T20:27:47.134Z,13.50
2019-01-28T20:30:34.653Z,12.53
2019-01-28T20:33:22.407Z,12.30
2019-01-28T20:36:10.051Z,13.50
2019-01-28T20:38:57.670Z,12.50
2019-01-28T20:41:45.079Z,11.57
2019-01-28T20:44:32.611Z,14.50
2019-01-28T20:49:41.642Z,7.70
2019-01-28T20:52:29.605Z,9.10
2019-01-28T20:55:17.149Z,8.20
2019-01-28T20:58:04.944Z,6.97
2019-01-28T21:00:52.964Z,6.53
2019-01-28T21:03:40.720Z,8.00
2019-01-28T21:06:28.506Z,10.67
2019-01-28T21:09:15.669Z,7.13
2019-01-28T21:12:03.242Z,8.80
2019-01-28T21:14:50.851Z,7.17
2019-01-28T21:17:38.272Z,10.93
2019-01-28T21:20:25.884Z,8.60
2019-01-28T21:23:13.530Z,7.53
2019-01-28T21:26:01.034Z,9.10
2019-01-28T21:28:48.548Z,5.13
2019-01-28T21:31:36.133Z,12.43
2019-01-28T21:34:23.418Z,10.27
2019-01-28T21:37:16.604Z,7.43
2019-01-28T21:40:05.319Z,6.33
2019-01-28T21:42:52.848Z,6.93
2019-01-28T21:45:40.577Z,7.27
2019-01-28T21:48:28.174Z,12.80
2019-01-28T21:51:16.157Z,8.53
2019-01-28T21:54:03.689Z,7.87
2019-01-28T21:56:52.132Z,9.50
2019-01-28T21:59:39.554Z,11.03
2019-01-28T22:02:26.705Z,8.77
2019-01-28T22:05:13.790Z,8.13
2019-01-28T22:08:01.645Z,9.60
2019-01-28T22:10:49.678Z,6.90
2019-01-28T22:13:37.038Z,9.33
2019-01-28T22:16:24.998Z,13.40
2019-01-28T22:19:31.107Z,7.13
2019-01-28T22:22:32.955Z,9.87
2019-01-28T22:25:37.409Z,8.13
2019-01-28T22:28:30.712Z,6.90
2019-01-28T22:31:20.769Z,11.37
2019-01-28T22:34:07.862Z,11.20
2019-01-28T22:36:55.346Z,6.77
2019-01-28T22:39:43.050Z,7.40
2019-01-28T22:42:30.653Z,6.37
2019-01-28T22:45:18.775Z,8.33
2019-01-28T22:48:06.255Z,6.77
2019-01-28T22:50:53.338Z,6.93
2019-01-28T22:53:40.460Z,8.10
2019-01-28T22:56:27.906Z,7.13
2019-01-28T22:59:15.058Z,11.50
2019-01-28T23:02:02.280Z,7.80
2019-01-28T23:04:57.082Z,11.90
2019-01-28T23:07:52.351Z,8.40
2019-01-28T23:10:42.364Z,12.30
2019-01-28T23:13:39.486Z,10.83
2019-01-28T23:16:39.315Z,9.73
2019-01-28T23:19:32.269Z,13.23
2019-01-28T23:22:19.918Z,12.53
2019-01-28T23:25:07.561Z,12.47
2019-01-28T23:27:55.026Z,12.30
2019-01-28T23:30:43.072Z,11.80
2019-01-28T23:33:31.523Z,9.60
2019-01-28T23:36:18.937Z,10.93
2019-01-28T23:39:07.974Z,13.97
2019-01-28T23:41:55.935Z,12.47
2019-01-28T23:44:43.278Z,13.10
2019-01-28T23:47:31.218Z,16.83
2019-01-28T23:50:19.119Z,13.73
2019-01-28T23:53:06.564Z,13.33
2019-01-28T23:55:54.454Z,12.80
2019-01-28T23:58:42.410Z,13.83
